sensor_id;sensor_type;location;lat;lon;timestamp;temperature;humidity
9437;DHT22;4757;59.334;18.034;2023-07-02T00:00:09;17.50;99.90
9437;DHT22;4757;59.334;18.034;2023-07-02T00:02:36;17.50;99.90
9437;DHT22;4757;59.334;18.034;2023-07-02T00:05:05;17.40;99.90
9437;DHT22;4757;59.334;18.034;2023-07-02T00:07:32;17.40;99.90
9437;DHT22;4757;59.334;18.034;2023-07-02T00:10:01;17.40;99.90
9437;DHT22;4757;59.334;18.034;2023-07-02T00:12:29;17.40;99.90
9437;DHT22;4757;59.334;18.034;2023-07-02T00:14:56;17.40;99.90
9437;DHT22;4757;59.334;18.034;2023-07-02T00:17:23;17.30;99.90
9437;DHT22;4757;59.334;18.034;2023-07-02T00:19:50;17.20;99.90
9437;DHT22;4757;59.334;18.034;2023-07-02T00:22:19;17.30;99.90
9437;DHT22;4757;59.334;18.034;2023-07-02T00:24:46;17.30;99.90
9437;DHT22;4757;59.334;18.034;2023-07-02T00:27:13;17.30;99.90
9437;DHT22;4757;59.334;18.034;2023-07-02T00:29:40;17.20;99.90
9437;DHT22;4757;59.334;18.034;2023-07-02T00:32:07;17.30;99.90
9437;DHT22;4757;59.334;18.034;2023-07-02T00:34:35;17.30;99.90
9437;DHT22;4757;59.334;18.034;2023-07-02T00:37:02;17.30;99.90
9437;DHT22;4757;59.334;18.034;2023-07-02T00:39:29;17.20;99.90
9437;DHT22;4757;59.334;18.034;2023-07-02T00:42:01;17.20;99.90
9437;DHT22;4757;59.334;18.034;2023-07-02T00:44:30;17.20;99.90
9437;DHT22;4757;59.334;18.034;2023-07-02T00:46:57;17.20;99.90
9437;DHT22;4757;59.334;18.034;2023-07-02T00:49:24;17.30;99.90
9437;DHT22;4757;59.334;18.034;2023-07-02T00:51:52;17.30;99.90
9437;DHT22;4757;59.334;18.034;2023-07-02T00:54:19;17.20;99.90
9437;DHT22;4757;59.334;18.034;2023-07-02T00:56:46;17.20;99.90
9437;DHT22;4757;59.334;18.034;2023-07-02T00:59:13;17.10;99.90
9437;DHT22;4757;59.334;18.034;2023-07-02T01:01:40;17.20;99.90
9437;DHT22;4757;59.334;18.034;2023-07-02T01:04:07;17.20;99.90
9437;DHT22;4757;59.334;18.034;2023-07-02T01:06:39;17.20;99.90
9437;DHT22;4757;59.334;18.034;2023-07-02T01:09:08;17.10;99.90
9437;DHT22;4757;59.334;18.034;2023-07-02T01:14:07;17.10;99.90
9437;DHT22;4757;59.334;18.034;2023-07-02T01:16:36;17.10;99.90
9437;DHT22;4757;59.334;18.034;2023-07-02T01:19:10;17.10;99.90
9437;DHT22;4757;59.334;18.034;2023-07-02T01:21:38;17.20;99.90
9437;DHT22;4757;59.334;18.034;2023-07-02T01:24:05;17.20;99.90
9437;DHT22;4757;59.334;18.034;2023-07-02T01:26:33;17.20;99.90
9437;DHT22;4757;59.334;18.034;2023-07-02T01:29:16;17.30;99.90
9437;DHT22;4757;59.334;18.034;2023-07-02T01:31:43;17.20;99.90
9437;DHT22;4757;59.334;18.034;2023-07-02T01:34:12;17.20;99.90
9437;DHT22;4757;59.334;18.034;2023-07-02T01:36:40;17.20;99.90
9437;DHT22;4757;59.334;18.034;2023-07-02T01:39:07;17.20;99.90
9437;DHT22;4757;59.334;18.034;2023-07-02T01:41:51;17.20;99.90
9437;DHT22;4757;59.334;18.034;2023-07-02T01:44:19;17.10;99.90
9437;DHT22;4757;59.334;18.034;2023-07-02T01:46:48;17.10;99.90
9437;DHT22;4757;59.334;18.034;2023-07-02T01:49:20;17.10;99.90
9437;DHT22;4757;59.334;18.034;2023-07-02T01:51:51;17.20;99.90
9437;DHT22;4757;59.334;18.034;2023-07-02T01:54:19;17.20;99.90
9437;DHT22;4757;59.334;18.034;2023-07-02T01:56:46;17.10;99.90
9437;DHT22;4757;59.334;18.034;2023-07-02T01:59:14;17.10;99.90
9437;DHT22;4757;59.334;18.034;2023-07-02T02:01:41;17.10;99.90
9437;DHT22;4757;59.334;18.034;2023-07-02T02:04:09;17.20;99.90
9437;DHT22;4757;59.334;18.034;2023-07-02T02:06:37;17.20;99.90
9437;DHT22;4757;59.334;18.034;2023-07-02T02:09:05;17.20;99.90
9437;DHT22;4757;59.334;18.034;2023-07-02T02:11:43;17.20;99.90
9437;DHT22;4757;59.334;18.034;2023-07-02T02:14:11;17.20;99.90
9437;DHT22;4757;59.334;18.034;2023-07-02T02:16:38;17.20;99.90
9437;DHT22;4757;59.334;18.034;2023-07-02T02:19:05;17.20;99.90
9437;DHT22;4757;59.334;18.034;2023-07-02T02:21:32;17.20;99.90
9437;DHT22;4757;59.334;18.034;2023-07-02T02:23:59;17.20;99.90
9437;DHT22;4757;59.334;18.034;2023-07-02T02:26:26;17.20;99.90
9437;DHT22;4757;59.334;18.034;2023-07-02T02:28:53;17.20;99.90
9437;DHT22;4757;59.334;18.034;2023-07-02T02:31:20;17.20;99.90
9437;DHT22;4757;59.334;18.034;2023-07-02T02:33:48;17.20;99.90
9437;DHT22;4757;59.334;18.034;2023-07-02T02:36:15;17.20;99.90
9437;DHT22;4757;59.334;18.034;2023-07-02T02:38:44;17.20;99.90
9437;DHT22;4757;59.334;18.034;2023-07-02T02:41:11;17.20;99.90
9437;DHT22;4757;59.334;18.034;2023-07-02T02:43:41;17.20;99.90
9437;DHT22;4757;59.334;18.034;2023-07-02T02:46:11;17.20;99.90
9437;DHT22;4757;59.334;18.034;2023-07-02T02:48:38;17.30;99.90
9437;DHT22;4757;59.334;18.034;2023-07-02T02:51:06;17.30;99.90
9437;DHT22;4757;59.334;18.034;2023-07-02T02:53:33;17.30;99.90
9437;DHT22;4757;59.334;18.034;2023-07-02T02:56:00;17.30;99.90
9437;DHT22;4757;59.334;18.034;2023-07-02T02:58:27;17.40;99.90
9437;DHT22;4757;59.334;18.034;2023-07-02T03:00:54;17.40;99.90
9437;DHT22;4757;59.334;18.034;2023-07-02T03:03:22;17.40;99.90
9437;DHT22;4757;59.334;18.034;2023-07-02T03:05:51;17.40;99.90
9437;DHT22;4757;59.334;18.034;2023-07-02T03:08:18;17.40;99.90
9437;DHT22;4757;59.334;18.034;2023-07-02T03:10:45;17.50;99.90
9437;DHT22;4757;59.334;18.034;2023-07-02T03:13:13;17.50;99.90
9437;DHT22;4757;59.334;18.034;2023-07-02T03:15:40;17.50;99.90
9437;DHT22;4757;59.334;18.034;2023-07-02T03:18:07;17.60;99.90
9437;DHT22;4757;59.334;18.034;2023-07-02T03:20:34;17.30;99.90
9437;DHT22;4757;59.334;18.034;2023-07-02T03:23:01;17.40;99.90
9437;DHT22;4757;59.334;18.034;2023-07-02T03:25:28;17.60;99.90
9437;DHT22;4757;59.334;18.034;2023-07-02T03:27:55;17.50;99.90
9437;DHT22;4757;59.334;18.034;2023-07-02T03:30:22;17.70;99.90
9437;DHT22;4757;59.334;18.034;2023-07-02T03:32:49;17.60;99.90
9437;DHT22;4757;59.334;18.034;2023-07-02T03:35:16;17.60;99.90
9437;DHT22;4757;59.334;18.034;2023-07-02T03:37:43;17.60;99.90
9437;DHT22;4757;59.334;18.034;2023-07-02T03:40:10;17.60;99.90
9437;DHT22;4757;59.334;18.034;2023-07-02T03:42:38;17.60;99.90
9437;DHT22;4757;59.334;18.034;2023-07-02T03:45:05;17.40;99.90
9437;DHT22;4757;59.334;18.034;2023-07-02T03:47:32;17.50;99.90
9437;DHT22;4757;59.334;18.034;2023-07-02T03:49:59;17.60;99.90
9437;DHT22;4757;59.334;18.034;2023-07-02T03:52:26;17.30;99.90
9437;DHT22;4757;59.334;18.034;2023-07-02T03:54:54;17.40;99.90
9437;DHT22;4757;59.334;18.034;2023-07-02T03:57:21;17.40;99.90
9437;DHT22;4757;59.334;18.034;2023-07-02T03:59:48;17.30;99.90
9437;DHT22;4757;59.334;18.034;2023-07-02T04:02:15;17.30;99.90
9437;DHT22;4757;59.334;18.034;2023-07-02T04:04:42;17.40;99.90
9437;DHT22;4757;59.334;18.034;2023-07-02T04:07:09;17.20;99.90
9437;DHT22;4757;59.334;18.034;2023-07-02T04:09:36;17.10;99.90
9437;DHT22;4757;59.334;18.034;2023-07-02T04:12:04;17.00;99.90
9437;DHT22;4757;59.334;18.034;2023-07-02T04:14:31;17.10;99.90
9437;DHT22;4757;59.334;18.034;2023-07-02T04:16:58;17.10;99.90
9437;DHT22;4757;59.334;18.034;2023-07-02T04:19:25;17.10;99.90
9437;DHT22;4757;59.334;18.034;2023-07-02T04:21:53;17.10;99.90
9437;DHT22;4757;59.334;18.034;2023-07-02T04:24:20;17.20;99.90
9437;DHT22;4757;59.334;18.034;2023-07-02T04:26:47;17.10;99.90
9437;DHT22;4757;59.334;18.034;2023-07-02T04:29:34;17.00;99.90
9437;DHT22;4757;59.334;18.034;2023-07-02T04:32:01;17.00;99.90
9437;DHT22;4757;59.334;18.034;2023-07-02T04:34:29;17.10;99.90
9437;DHT22;4757;59.334;18.034;2023-07-02T04:36:56;17.10;99.90
9437;DHT22;4757;59.334;18.034;2023-07-02T04:39:23;17.20;99.90
9437;DHT22;4757;59.334;18.034;2023-07-02T04:41:50;17.20;99.90
9437;DHT22;4757;59.334;18.034;2023-07-02T04:44:19;17.30;99.90
9437;DHT22;4757;59.334;18.034;2023-07-02T04:46:48;17.20;99.90
9437;DHT22;4757;59.334;18.034;2023-07-02T04:49:15;17.10;99.90
9437;DHT22;4757;59.334;18.034;2023-07-02T04:51:42;17.30;99.90
9437;DHT22;4757;59.334;18.034;2023-07-02T04:54:09;17.40;99.90
9437;DHT22;4757;59.334;18.034;2023-07-02T04:56:36;17.20;99.90
9437;DHT22;4757;59.334;18.034;2023-07-02T04:59:03;17.30;99.90
9437;DHT22;4757;59.334;18.034;2023-07-02T05:01:30;17.30;99.90
9437;DHT22;4757;59.334;18.034;2023-07-02T05:03:58;17.40;99.90
9437;DHT22;4757;59.334;18.034;2023-07-02T05:06:25;17.40;99.90
9437;DHT22;4757;59.334;18.034;2023-07-02T05:08:52;17.40;99.90
9437;DHT22;4757;59.334;18.034;2023-07-02T05:11:19;17.30;99.90
9437;DHT22;4757;59.334;18.034;2023-07-02T05:13:46;17.30;99.90
9437;DHT22;4757;59.334;18.034;2023-07-02T05:16:14;17.40;99.90
9437;DHT22;4757;59.334;18.034;2023-07-02T05:18:41;17.50;99.90
9437;DHT22;4757;59.334;18.034;2023-07-02T05:21:08;17.40;99.90
9437;DHT22;4757;59.334;18.034;2023-07-02T05:23:35;17.40;99.90
9437;DHT22;4757;59.334;18.034;2023-07-02T05:26:02;17.30;99.90
9437;DHT22;4757;59.334;18.034;2023-07-02T05:28:29;17.40;99.90
9437;DHT22;4757;59.334;18.034;2023-07-02T05:30:56;17.30;99.90
9437;DHT22;4757;59.334;18.034;2023-07-02T05:33:23;17.30;99.90
9437;DHT22;4757;59.334;18.034;2023-07-02T05:35:50;17.50;99.90
9437;DHT22;4757;59.334;18.034;2023-07-02T05:38:18;17.60;99.90
9437;DHT22;4757;59.334;18.034;2023-07-02T05:40:46;17.70;99.90
9437;DHT22;4757;59.334;18.034;2023-07-02T05:43:13;17.50;99.90
9437;DHT22;4757;59.334;18.034;2023-07-02T05:45:40;17.60;99.90
9437;DHT22;4757;59.334;18.034;2023-07-02T05:48:07;17.80;99.90
9437;DHT22;4757;59.334;18.034;2023-07-02T05:50:34;17.90;99.90
9437;DHT22;4757;59.334;18.034;2023-07-02T05:53:01;18.10;99.90
9437;DHT22;4757;59.334;18.034;2023-07-02T05:55:28;18.10;99.90
9437;DHT22;4757;59.334;18.034;2023-07-02T05:57:55;18.30;99.90
9437;DHT22;4757;59.334;18.034;2023-07-02T06:00:28;18.10;99.90
9437;DHT22;4757;59.334;18.034;2023-07-02T06:02:55;18.10;99.90
9437;DHT22;4757;59.334;18.034;2023-07-02T06:05:22;18.10;99.90
9437;DHT22;4757;59.334;18.034;2023-07-02T06:07:50;18.10;99.90
9437;DHT22;4757;59.334;18.034;2023-07-02T06:10:17;18.20;99.90
9437;DHT22;4757;59.334;18.034;2023-07-02T06:12:44;18.30;99.90
9437;DHT22;4757;59.334;18.034;2023-07-02T06:15:11;18.30;99.90
9437;DHT22;4757;59.334;18.034;2023-07-02T06:17:38;18.40;99.90
9437;DHT22;4757;59.334;18.034;2023-07-02T06:20:06;18.30;99.90
9437;DHT22;4757;59.334;18.034;2023-07-02T06:22:33;18.30;99.90
9437;DHT22;4757;59.334;18.034;2023-07-02T06:25:00;18.30;99.90
9437;DHT22;4757;59.334;18.034;2023-07-02T06:27:31;18.30;99.90
9437;DHT22;4757;59.334;18.034;2023-07-02T06:29:58;18.30;99.90
9437;DHT22;4757;59.334;18.034;2023-07-02T06:32:25;18.50;99.90
9437;DHT22;4757;59.334;18.034;2023-07-02T06:34:52;18.50;99.90
9437;DHT22;4757;59.334;18.034;2023-07-02T06:37:19;18.20;99.90
9437;DHT22;4757;59.334;18.034;2023-07-02T06:39:46;18.20;99.90
9437;DHT22;4757;59.334;18.034;2023-07-02T06:42:14;18.10;99.90
9437;DHT22;4757;59.334;18.034;2023-07-02T06:44:41;18.00;99.90
9437;DHT22;4757;59.334;18.034;2023-07-02T06:47:08;18.10;99.90
9437;DHT22;4757;59.334;18.034;2023-07-02T06:49:36;18.30;99.90
9437;DHT22;4757;59.334;18.034;2023-07-02T06:52:03;18.20;99.90
9437;DHT22;4757;59.334;18.034;2023-07-02T06:54:30;18.10;99.90
9437;DHT22;4757;59.334;18.034;2023-07-02T06:56:57;18.10;99.90
9437;DHT22;4757;59.334;18.034;2023-07-02T06:59:24;18.00;99.90
9437;DHT22;4757;59.334;18.034;2023-07-02T07:01:52;18.10;99.90
9437;DHT22;4757;59.334;18.034;2023-07-02T07:04:19;18.20;99.90
9437;DHT22;4757;59.334;18.034;2023-07-02T07:06:46;18.20;99.90
9437;DHT22;4757;59.334;18.034;2023-07-02T07:09:13;18.30;99.90
9437;DHT22;4757;59.334;18.034;2023-07-02T07:11:40;18.20;99.90
9437;DHT22;4757;59.334;18.034;2023-07-02T07:14:07;18.10;99.90
9437;DHT22;4757;59.334;18.034;2023-07-02T07:16:34;18.20;99.90
9437;DHT22;4757;59.334;18.034;2023-07-02T07:19:01;18.10;99.90
9437;DHT22;4757;59.334;18.034;2023-07-02T07:21:28;18.00;99.90
9437;DHT22;4757;59.334;18.034;2023-07-02T07:23:56;17.90;99.90
9437;DHT22;4757;59.334;18.034;2023-07-02T07:26:23;17.80;99.90
9437;DHT22;4757;59.334;18.034;2023-07-02T07:28:50;17.90;99.90
9437;DHT22;4757;59.334;18.034;2023-07-02T07:31:18;18.10;99.90
9437;DHT22;4757;59.334;18.034;2023-07-02T07:33:45;18.00;99.90
9437;DHT22;4757;59.334;18.034;2023-07-02T07:36:12;17.90;99.90
9437;DHT22;4757;59.334;18.034;2023-07-02T07:38:39;17.70;99.90
9437;DHT22;4757;59.334;18.034;2023-07-02T07:41:06;17.50;99.90
9437;DHT22;4757;59.334;18.034;2023-07-02T07:43:34;17.40;99.90
9437;DHT22;4757;59.334;18.034;2023-07-02T07:46:01;17.30;99.90
9437;DHT22;4757;59.334;18.034;2023-07-02T07:48:28;17.30;99.90
9437;DHT22;4757;59.334;18.034;2023-07-02T07:50:55;17.30;99.90
9437;DHT22;4757;59.334;18.034;2023-07-02T07:53:22;17.30;99.90
9437;DHT22;4757;59.334;18.034;2023-07-02T07:55:49;17.30;99.90
9437;DHT22;4757;59.334;18.034;2023-07-02T07:58:16;17.30;99.90
9437;DHT22;4757;59.334;18.034;2023-07-02T08:00:43;17.40;99.90
9437;DHT22;4757;59.334;18.034;2023-07-02T08:03:10;17.50;99.90
9437;DHT22;4757;59.334;18.034;2023-07-02T08:05:37;17.30;99.90
9437;DHT22;4757;59.334;18.034;2023-07-02T08:08:04;17.30;99.90
9437;DHT22;4757;59.334;18.034;2023-07-02T08:10:31;17.20;99.90
9437;DHT22;4757;59.334;18.034;2023-07-02T08:12:58;16.80;99.90
9437;DHT22;4757;59.334;18.034;2023-07-02T08:15:26;16.30;99.90
9437;DHT22;4757;59.334;18.034;2023-07-02T08:17:53;16.20;99.90
9437;DHT22;4757;59.334;18.034;2023-07-02T08:20:21;16.10;99.90
9437;DHT22;4757;59.334;18.034;2023-07-02T08:22:49;16.20;99.90
9437;DHT22;4757;59.334;18.034;2023-07-02T08:25:18;16.30;99.90
9437;DHT22;4757;59.334;18.034;2023-07-02T08:27:48;16.40;99.90
9437;DHT22;4757;59.334;18.034;2023-07-02T08:30:15;16.40;99.90
9437;DHT22;4757;59.334;18.034;2023-07-02T08:32:42;16.30;99.90
9437;DHT22;4757;59.334;18.034;2023-07-02T08:35:09;16.20;99.90
9437;DHT22;4757;59.334;18.034;2023-07-02T08:37:36;16.20;99.90
9437;DHT22;4757;59.334;18.034;2023-07-02T08:40:05;16.20;99.90
9437;DHT22;4757;59.334;18.034;2023-07-02T08:42:33;16.20;99.90
9437;DHT22;4757;59.334;18.034;2023-07-02T08:45:01;16.20;99.90
9437;DHT22;4757;59.334;18.034;2023-07-02T08:47:28;16.10;99.90
9437;DHT22;4757;59.334;18.034;2023-07-02T08:49:56;16.10;99.90
9437;DHT22;4757;59.334;18.034;2023-07-02T08:52:29;16.00;99.90
9437;DHT22;4757;59.334;18.034;2023-07-02T08:54:56;15.80;99.90
9437;DHT22;4757;59.334;18.034;2023-07-02T08:57:23;15.90;99.90
9437;DHT22;4757;59.334;18.034;2023-07-02T08:59:50;15.90;99.90
9437;DHT22;4757;59.334;18.034;2023-07-02T09:02:31;15.90;99.90
9437;DHT22;4757;59.334;18.034;2023-07-02T09:05:02;15.90;99.90
9437;DHT22;4757;59.334;18.034;2023-07-02T09:07:30;15.80;99.90
9437;DHT22;4757;59.334;18.034;2023-07-02T09:09:57;15.60;99.90
9437;DHT22;4757;59.334;18.034;2023-07-02T09:12:29;15.60;99.90
9437;DHT22;4757;59.334;18.034;2023-07-02T09:15:01;15.60;99.90
9437;DHT22;4757;59.334;18.034;2023-07-02T09:17:31;15.60;99.90
9437;DHT22;4757;59.334;18.034;2023-07-02T09:20:00;15.40;99.90
9437;DHT22;4757;59.334;18.034;2023-07-02T09:22:28;15.40;99.90
9437;DHT22;4757;59.334;18.034;2023-07-02T09:25:00;15.50;99.90
9437;DHT22;4757;59.334;18.034;2023-07-02T09:27:38;15.60;99.90
9437;DHT22;4757;59.334;18.034;2023-07-02T09:30:07;15.60;99.90
9437;DHT22;4757;59.334;18.034;2023-07-02T09:32:35;15.70;99.90
9437;DHT22;4757;59.334;18.034;2023-07-02T09:35:02;15.60;99.90
9437;DHT22;4757;59.334;18.034;2023-07-02T09:37:31;15.80;99.90
9437;DHT22;4757;59.334;18.034;2023-07-02T09:39:59;16.00;99.90
9437;DHT22;4757;59.334;18.034;2023-07-02T09:42:28;16.20;99.90
9437;DHT22;4757;59.334;18.034;2023-07-02T09:44:55;16.10;99.90
9437;DHT22;4757;59.334;18.034;2023-07-02T09:47:26;16.30;99.90
9437;DHT22;4757;59.334;18.034;2023-07-02T09:50:03;16.30;99.90
9437;DHT22;4757;59.334;18.034;2023-07-02T09:52:34;16.30;99.90
9437;DHT22;4757;59.334;18.034;2023-07-02T09:55:01;16.30;99.90
9437;DHT22;4757;59.334;18.034;2023-07-02T09:57:31;16.40;99.90
9437;DHT22;4757;59.334;18.034;2023-07-02T10:00:02;16.40;99.90
9437;DHT22;4757;59.334;18.034;2023-07-02T10:02:30;16.30;99.90
9437;DHT22;4757;59.334;18.034;2023-07-02T10:04:57;16.30;99.90
9437;DHT22;4757;59.334;18.034;2023-07-02T10:07:29;16.40;99.90
9437;DHT22;4757;59.334;18.034;2023-07-02T10:09:57;16.40;99.90
9437;DHT22;4757;59.334;18.034;2023-07-02T10:12:28;16.40;99.90
9437;DHT22;4757;59.334;18.034;2023-07-02T10:14:57;16.40;99.90
9437;DHT22;4757;59.334;18.034;2023-07-02T10:17:25;16.30;99.90
9437;DHT22;4757;59.334;18.034;2023-07-02T10:19:53;16.30;99.90
9437;DHT22;4757;59.334;18.034;2023-07-02T10:22:20;16.30;99.90
9437;DHT22;4757;59.334;18.034;2023-07-02T10:25:05;16.20;99.90
9437;DHT22;4757;59.334;18.034;2023-07-02T10:27:38;16.30;99.90
9437;DHT22;4757;59.334;18.034;2023-07-02T10:30:07;16.40;99.90
9437;DHT22;4757;59.334;18.034;2023-07-02T10:32:36;16.30;99.90
9437;DHT22;4757;59.334;18.034;2023-07-02T10:35:18;16.20;99.90
9437;DHT22;4757;59.334;18.034;2023-07-02T10:37:45;16.30;99.90
9437;DHT22;4757;59.334;18.034;2023-07-02T10:40:13;16.00;99.90
9437;DHT22;4757;59.334;18.034;2023-07-02T10:42:50;15.90;99.90
9437;DHT22;4757;59.334;18.034;2023-07-02T10:45:18;15.70;99.90
9437;DHT22;4757;59.334;18.034;2023-07-02T10:47:46;15.70;99.90
9437;DHT22;4757;59.334;18.034;2023-07-02T10:50:18;15.50;99.90
9437;DHT22;4757;59.334;18.034;2023-07-02T10:52:46;15.50;99.90
9437;DHT22;4757;59.334;18.034;2023-07-02T10:55:21;15.50;99.90
9437;DHT22;4757;59.334;18.034;2023-07-02T10:57:49;15.40;99.90
9437;DHT22;4757;59.334;18.034;2023-07-02T11:00:18;15.20;99.90
9437;DHT22;4757;59.334;18.034;2023-07-02T11:02:46;15.10;99.90
9437;DHT22;4757;59.334;18.034;2023-07-02T11:05:13;15.00;99.90
9437;DHT22;4757;59.334;18.034;2023-07-02T11:07:42;15.00;99.90
9437;DHT22;4757;59.334;18.034;2023-07-02T11:10:16;15.00;99.90
9437;DHT22;4757;59.334;18.034;2023-07-02T11:12:44;15.10;99.90
9437;DHT22;4757;59.334;18.034;2023-07-02T11:15:15;15.30;99.90
9437;DHT22;4757;59.334;18.034;2023-07-02T11:17:45;15.20;99.90
9437;DHT22;4757;59.334;18.034;2023-07-02T11:20:14;15.20;99.90
9437;DHT22;4757;59.334;18.034;2023-07-02T11:22:42;15.20;99.90
9437;DHT22;4757;59.334;18.034;2023-07-02T11:25:15;15.20;99.90
9437;DHT22;4757;59.334;18.034;2023-07-02T11:27:43;15.20;99.90
9437;DHT22;4757;59.334;18.034;2023-07-02T11:30:11;15.00;99.90
9437;DHT22;4757;59.334;18.034;2023-07-02T11:32:53;15.00;99.90
9437;DHT22;4757;59.334;18.034;2023-07-02T11:35:22;15.00;99.90
9437;DHT22;4757;59.334;18.034;2023-07-02T11:37:49;15.10;99.90
9437;DHT22;4757;59.334;18.034;2023-07-02T11:40:19;15.00;99.90
9437;DHT22;4757;59.334;18.034;2023-07-02T11:42:47;15.00;99.90
9437;DHT22;4757;59.334;18.034;2023-07-02T11:45:14;15.00;99.90
9437;DHT22;4757;59.334;18.034;2023-07-02T11:47:41;15.10;99.90
9437;DHT22;4757;59.334;18.034;2023-07-02T11:50:08;15.10;99.90
9437;DHT22;4757;59.334;18.034;2023-07-02T11:52:52;15.00;99.90
9437;DHT22;4757;59.334;18.034;2023-07-02T11:55:19;15.00;99.90
9437;DHT22;4757;59.334;18.034;2023-07-02T11:57:46;15.00;99.90
9437;DHT22;4757;59.334;18.034;2023-07-02T12:00:16;15.10;99.90
9437;DHT22;4757;59.334;18.034;2023-07-02T12:02:43;15.10;99.90
9437;DHT22;4757;59.334;18.034;2023-07-02T12:05:11;15.10;99.90
9437;DHT22;4757;59.334;18.034;2023-07-02T12:07:39;15.10;99.90
9437;DHT22;4757;59.334;18.034;2023-07-02T12:10:07;15.00;99.90
9437;DHT22;4757;59.334;18.034;2023-07-02T12:12:34;15.10;99.90
9437;DHT22;4757;59.334;18.034;2023-07-02T12:15:02;15.20;99.90
9437;DHT22;4757;59.334;18.034;2023-07-02T12:17:29;15.10;99.90
9437;DHT22;4757;59.334;18.034;2023-07-02T12:19:57;15.10;99.90
9437;DHT22;4757;59.334;18.034;2023-07-02T12:22:24;15.20;99.90
9437;DHT22;4757;59.334;18.034;2023-07-02T12:24:51;15.30;99.90
9437;DHT22;4757;59.334;18.034;2023-07-02T12:27:22;15.50;99.90
9437;DHT22;4757;59.334;18.034;2023-07-02T12:29:51;15.50;99.90
9437;DHT22;4757;59.334;18.034;2023-07-02T12:32:20;15.30;99.90
9437;DHT22;4757;59.334;18.034;2023-07-02T12:34:47;15.20;99.90
9437;DHT22;4757;59.334;18.034;2023-07-02T12:37:14;15.30;99.90
9437;DHT22;4757;59.334;18.034;2023-07-02T12:39:44;15.10;99.90
9437;DHT22;4757;59.334;18.034;2023-07-02T12:42:11;15.20;99.90
9437;DHT22;4757;59.334;18.034;2023-07-02T12:44:38;15.40;99.90
9437;DHT22;4757;59.334;18.034;2023-07-02T12:47:05;15.50;99.90
9437;DHT22;4757;59.334;18.034;2023-07-02T12:49:32;15.50;99.90
9437;DHT22;4757;59.334;18.034;2023-07-02T12:51:59;15.50;99.90
9437;DHT22;4757;59.334;18.034;2023-07-02T12:54:26;15.60;99.90
9437;DHT22;4757;59.334;18.034;2023-07-02T12:56:54;15.30;99.90
9437;DHT22;4757;59.334;18.034;2023-07-02T12:59:21;15.30;99.90
9437;DHT22;4757;59.334;18.034;2023-07-02T13:01:48;15.40;99.90
9437;DHT22;4757;59.334;18.034;2023-07-02T13:04:15;15.40;99.90
9437;DHT22;4757;59.334;18.034;2023-07-02T13:06:42;15.50;99.90
9437;DHT22;4757;59.334;18.034;2023-07-02T13:09:11;15.70;99.90
9437;DHT22;4757;59.334;18.034;2023-07-02T13:11:38;15.60;99.90
9437;DHT22;4757;59.334;18.034;2023-07-02T13:14:05;15.80;99.90
9437;DHT22;4757;59.334;18.034;2023-07-02T13:16:32;15.90;99.90
9437;DHT22;4757;59.334;18.034;2023-07-02T13:18:59;15.90;99.90
9437;DHT22;4757;59.334;18.034;2023-07-02T13:21:29;16.00;99.90
9437;DHT22;4757;59.334;18.034;2023-07-02T13:23:56;16.00;99.90
9437;DHT22;4757;59.334;18.034;2023-07-02T13:26:23;16.10;99.90
9437;DHT22;4757;59.334;18.034;2023-07-02T13:28:50;16.10;99.90
9437;DHT22;4757;59.334;18.034;2023-07-02T13:31:17;16.20;99.90
9437;DHT22;4757;59.334;18.034;2023-07-02T13:33:44;16.10;99.90
9437;DHT22;4757;59.334;18.034;2023-07-02T13:36:13;16.30;99.90
9437;DHT22;4757;59.334;18.034;2023-07-02T13:38:40;16.20;99.90
9437;DHT22;4757;59.334;18.034;2023-07-02T13:41:07;16.30;99.90
9437;DHT22;4757;59.334;18.034;2023-07-02T13:43:34;16.20;99.90
9437;DHT22;4757;59.334;18.034;2023-07-02T13:46:02;16.20;99.90
9437;DHT22;4757;59.334;18.034;2023-07-02T13:48:29;16.10;99.90
9437;DHT22;4757;59.334;18.034;2023-07-02T13:50:56;16.10;99.90
9437;DHT22;4757;59.334;18.034;2023-07-02T13:53:23;16.30;99.90
9437;DHT22;4757;59.334;18.034;2023-07-02T13:55:50;16.50;99.90
9437;DHT22;4757;59.334;18.034;2023-07-02T13:58:19;16.60;99.90
9437;DHT22;4757;59.334;18.034;2023-07-02T14:00:55;16.80;99.90
9437;DHT22;4757;59.334;18.034;2023-07-02T14:03:22;16.60;99.90
9437;DHT22;4757;59.334;18.034;2023-07-02T14:05:50;16.60;99.90
9437;DHT22;4757;59.334;18.034;2023-07-02T14:08:18;16.80;99.90
9437;DHT22;4757;59.334;18.034;2023-07-02T14:10:45;16.70;99.90
9437;DHT22;4757;59.334;18.034;2023-07-02T14:13:12;16.70;99.90
9437;DHT22;4757;59.334;18.034;2023-07-02T14:15:39;16.50;99.90
9437;DHT22;4757;59.334;18.034;2023-07-02T14:18:07;16.40;99.90
9437;DHT22;4757;59.334;18.034;2023-07-02T14:20:34;16.40;99.90
9437;DHT22;4757;59.334;18.034;2023-07-02T14:23:01;16.30;99.90
9437;DHT22;4757;59.334;18.034;2023-07-02T14:25:28;16.30;99.90
9437;DHT22;4757;59.334;18.034;2023-07-02T14:28:08;16.20;99.90
9437;DHT22;4757;59.334;18.034;2023-07-02T14:30:36;16.10;99.90
9437;DHT22;4757;59.334;18.034;2023-07-02T14:33:03;15.90;99.90
9437;DHT22;4757;59.334;18.034;2023-07-02T14:35:31;15.90;99.90
9437;DHT22;4757;59.334;18.034;2023-07-02T14:37:58;16.00;99.90
9437;DHT22;4757;59.334;18.034;2023-07-02T14:40:25;16.00;99.90
9437;DHT22;4757;59.334;18.034;2023-07-02T14:42:52;16.00;99.90
9437;DHT22;4757;59.334;18.034;2023-07-02T14:45:20;15.90;99.90
9437;DHT22;4757;59.334;18.034;2023-07-02T14:47:47;15.90;99.90
9437;DHT22;4757;59.334;18.034;2023-07-02T14:50:14;15.70;99.90
9437;DHT22;4757;59.334;18.034;2023-07-02T14:52:45;15.50;99.90
9437;DHT22;4757;59.334;18.034;2023-07-02T14:55:12;15.40;99.90
9437;DHT22;4757;59.334;18.034;2023-07-02T14:57:40;15.40;99.90
9437;DHT22;4757;59.334;18.034;2023-07-02T15:00:07;15.40;99.90
9437;DHT22;4757;59.334;18.034;2023-07-02T15:02:35;15.10;99.90
9437;DHT22;4757;59.334;18.034;2023-07-02T15:05:03;15.10;99.90
9437;DHT22;4757;59.334;18.034;2023-07-02T15:07:30;15.20;99.90
9437;DHT22;4757;59.334;18.034;2023-07-02T15:09:57;15.20;99.90
9437;DHT22;4757;59.334;18.034;2023-07-02T15:12:24;15.10;99.90
9437;DHT22;4757;59.334;18.034;2023-07-02T15:14:51;15.20;99.90
9437;DHT22;4757;59.334;18.034;2023-07-02T15:17:18;15.20;99.90
9437;DHT22;4757;59.334;18.034;2023-07-02T15:19:45;15.10;99.90
9437;DHT22;4757;59.334;18.034;2023-07-02T15:22:12;15.10;99.90
9437;DHT22;4757;59.334;18.034;2023-07-02T15:24:39;15.20;99.90
9437;DHT22;4757;59.334;18.034;2023-07-02T15:27:07;15.10;99.90
9437;DHT22;4757;59.334;18.034;2023-07-02T15:29:34;15.10;99.90
9437;DHT22;4757;59.334;18.034;2023-07-02T15:32:01;15.10;99.90
9437;DHT22;4757;59.334;18.034;2023-07-02T15:34:29;15.10;99.90
9437;DHT22;4757;59.334;18.034;2023-07-02T15:36:56;15.00;99.90
9437;DHT22;4757;59.334;18.034;2023-07-02T15:39:23;15.00;99.90
9437;DHT22;4757;59.334;18.034;2023-07-02T15:41:51;15.00;99.90
9437;DHT22;4757;59.334;18.034;2023-07-02T15:44:18;15.00;99.90
9437;DHT22;4757;59.334;18.034;2023-07-02T15:46:45;14.90;99.90
9437;DHT22;4757;59.334;18.034;2023-07-02T15:49:13;14.90;99.90
9437;DHT22;4757;59.334;18.034;2023-07-02T15:51:41;14.90;99.90